Time;durP1;ratioP1;P1;durP2;ratioP2;P2;SDS_P1;SDS_P2;PMS_P1;PMS_P2;Temp;Humidity;BMP_temperature;BMP_pressure;BME280_temperature;BME280_humidity;BME280_pressure;Samples;Min_cycle;Max_cycle;Signal;HPM_P1;HPM_P2
2022/11/27 00:00:35;;;;;;;74.67;25.50;;;8.20;1.00;;;;;;5055775;28;20637;-76
2022/11/27 00:03:01;;;;;;;68.33;22.37;;;8.20;1.00;;;;;;5055839;28;20185;-70
2022/11/27 00:05:27;;;;;;;64.50;23.73;;;8.20;1.00;;;;;;5054429;28;20652;-77
2022/11/27 00:07:53;;;;;;;47.80;22.50;;;8.20;1.00;;;;;;5056623;28;20181;-68
2022/11/27 00:10:18;;;;;;;71.23;24.00;;;8.20;1.00;;;;;;5055405;28;20204;-68
2022/11/27 00:12:44;;;;;;;65.07;23.77;;;8.20;1.00;;;;;;5056539;28;20167;-77
2022/11/27 00:15:10;;;;;;;59.77;24.17;;;8.20;1.00;;;;;;5054033;28;20222;-75
2022/11/27 00:17:36;;;;;;;54.13;21.97;;;8.20;1.00;;;;;;5056468;28;20642;-68
2022/11/27 00:20:01;;;;;;;50.77;21.50;;;8.20;1.00;;;;;;5057345;28;20571;-68
2022/11/27 00:22:27;;;;;;;42.80;22.47;;;8.20;1.00;;;;;;5057017;28;20180;-77
2022/11/27 00:24:53;;;;;;;58.60;21.00;;;8.30;1.00;;;;;;5055770;28;20180;-69
2022/11/27 00:27:19;;;;;;;47.33;22.57;;;8.30;1.00;;;;;;5055034;28;20259;-78
2022/11/27 00:29:44;;;;;;;60.80;22.20;;;8.30;1.00;;;;;;5055047;28;20466;-69
2022/11/27 00:32:11;;;;;;;45.97;22.77;;;8.30;1.00;;;;;;5056371;28;20163;-77
2022/11/27 00:34:36;;;;;;;51.90;22.67;;;8.30;1.00;;;;;;5054563;28;20528;-76
2022/11/27 00:37:02;;;;;;;59.13;24.90;;;8.30;1.00;;;;;;5054706;28;20444;-77
2022/11/27 00:39:28;;;;;;;51.13;23.37;;;8.30;1.00;;;;;;5056094;28;20466;-77
2022/11/27 00:41:54;;;;;;;53.30;23.47;;;8.20;1.00;;;;;;5056196;28;20252;-77
2022/11/27 00:44:22;;;;;;;49.80;22.90;;;8.30;1.00;;;;;;5053962;28;20219;-77
2022/11/27 00:46:48;;;;;;;54.77;22.80;;;8.30;1.00;;;;;;5055945;28;20192;-77
2022/11/27 00:49:14;;;;;;;47.47;20.00;;;8.30;1.00;;;;;;5054542;28;20456;-77
2022/11/27 00:51:41;;;;;;;54.00;22.00;;;8.30;1.00;;;;;;5055585;28;20235;-76
2022/11/27 00:54:07;;;;;;;45.77;22.17;;;8.30;1.00;;;;;;5054599;28;20400;-68
2022/11/27 00:56:38;;;;;;;47.50;26.00;;;8.30;1.00;;;;;;5054662;28;20418;-68
2022/11/27 00:59:05;;;;;;;56.87;20.40;;;8.30;1.00;;;;;;5054427;28;20766;-76
2022/11/27 01:01:35;;;;;;;50.87;22.67;;;8.30;1.00;;;;;;5055811;28;20459;-77
2022/11/27 01:04:05;;;;;;;49.80;22.00;;;8.30;99.90;;;;;;5053671;28;20431;-68
2022/11/27 01:06:31;;;;;;;44.13;20.47;;;8.30;99.90;;;;;;5055476;28;21055;-77
2022/11/27 01:08:58;;;;;;;43.10;22.60;;;8.30;99.90;;;;;;5054189;28;20471;-76
2022/11/27 01:11:26;;;;;;;51.17;21.60;;;8.30;99.90;;;;;;5053538;28;20376;-68
2022/11/27 01:13:54;;;;;;;52.87;21.70;;;8.30;99.90;;;;;;5054288;28;20377;-77
2022/11/27 01:16:23;;;;;;;52.60;22.50;;;8.30;99.90;;;;;;5055536;28;20428;-68
2022/11/27 01:18:50;;;;;;;41.87;21.70;;;8.20;99.90;;;;;;5054429;28;20439;-69
2022/11/27 01:21:19;;;;;;;52.47;21.97;;;8.20;99.90;;;;;;5055271;28;20412;-69
2022/11/27 01:23:48;;;;;;;53.87;23.43;;;8.20;99.90;;;;;;5054407;28;20463;-76
2022/11/27 01:26:14;;;;;;;38.23;21.17;;;8.30;99.90;;;;;;5055374;28;20425;-68
2022/11/27 01:28:40;;;;;;;46.03;20.97;;;8.30;99.90;;;;;;5054900;28;20948;-72
2022/11/27 01:31:11;;;;;;;46.60;20.90;;;8.30;99.90;;;;;;5053135;28;20397;-76
2022/11/27 01:33:37;;;;;;;47.80;20.63;;;8.30;99.90;;;;;;5053302;28;20410;-76
2022/11/27 01:36:05;;;;;;;45.50;19.00;;;8.20;99.90;;;;;;5053970;28;20411;-77
2022/11/27 01:38:32;;;;;;;44.53;23.20;;;8.20;99.90;;;;;;5053957;28;20194;-77
2022/11/27 01:41:04;;;;;;;48.33;22.67;;;8.20;99.90;;;;;;5053808;28;20414;-68
2022/11/27 01:43:39;;;;;;;38.47;20.27;;;8.20;99.90;;;;;;5053323;28;20434;-78
2022/11/27 01:46:16;;;;;;;49.30;21.87;;;8.20;99.90;;;;;;5054855;28;20443;-77
2022/11/27 01:48:42;;;;;;;46.80;21.10;;;8.20;99.90;;;;;;5052994;28;20458;-68
2022/11/27 01:51:07;;;;;;;41.47;19.40;;;8.20;99.90;;;;;;5053775;28;20450;-78
2022/11/27 01:53:33;;;;;;;47.20;22.30;;;8.30;99.90;;;;;;5053015;28;20906;-69
2022/11/27 01:56:00;;;;;;;43.10;20.83;;;8.30;99.90;;;;;;5053978;28;20257;-68
2022/11/27 01:58:29;;;;;;;50.63;22.17;;;8.20;99.90;;;;;;5059603;28;20412;-77
2022/11/27 02:00:55;;;;;;;45.30;19.00;;;8.20;99.90;;;;;;5074292;28;20426;-77
2022/11/27 02:03:21;;;;;;;40.83;22.60;;;8.30;99.90;;;;;;5053981;28;20432;-77
2022/11/27 02:05:47;;;;;;;42.83;21.17;;;8.30;99.90;;;;;;5053188;28;20500;-68
2022/11/27 02:08:15;;;;;;;49.30;21.20;;;8.30;99.90;;;;;;5072972;28;20424;-68
2022/11/27 02:10:56;;;;;;;38.77;20.13;;;8.20;99.90;;;;;;5074024;28;20173;-77
2022/11/27 02:13:28;;;;;;;49.10;21.57;;;8.20;99.90;;;;;;5072376;28;20415;-70
2022/11/27 02:16:20;;;;;;;41.77;19.77;;;8.20;99.90;;;;;;5073521;28;20453;-78
2022/11/27 02:19:03;;;;;;;45.80;19.00;;;8.20;99.90;;;;;;5053856;28;21020;-68
2022/11/27 02:21:41;;;;;;;42.80;19.87;;;8.20;99.90;;;;;;5055637;28;20423;-77
2022/11/27 02:24:25;;;;;;;50.07;20.43;;;8.20;99.90;;;;;;5073223;28;20497;-77
2022/11/27 02:27:18;;;;;;;47.10;20.50;;;8.20;99.90;;;;;;5068823;28;20490;-78
2022/11/27 02:29:48;;;;;;;41.77;19.20;;;8.20;99.90;;;;;;5052687;28;20447;-69
2022/11/27 02:32:42;;;;;;;37.67;17.90;;;8.20;99.90;;;;;;5061482;28;20396;-68
2022/11/27 02:35:17;;;;;;;37.13;19.13;;;8.20;99.90;;;;;;5073028;28;20405;-69
2022/11/27 02:38:06;;;;;;;41.73;20.07;;;8.20;99.90;;;;;;5062413;28;20440;-68
2022/11/27 02:40:44;;;;;;;37.53;17.17;;;8.20;99.90;;;;;;5053273;28;20465;-69
2022/11/27 02:43:29;;;;;;;28.93;16.33;;;8.20;99.90;;;;;;5067557;28;20420;-69
2022/11/27 02:45:58;;;;;;;30.30;17.20;;;8.10;99.90;;;;;;5072961;28;20399;-76
2022/11/27 02:48:34;;;;;;;33.63;17.03;;;8.10;99.90;;;;;;5057696;28;20425;-70
2022/11/27 02:51:03;;;;;;;30.77;15.87;;;8.00;99.90;;;;;;5054806;28;20428;-69
2022/11/27 02:53:34;;;;;;;33.80;17.87;;;8.00;99.90;;;;;;5052446;28;20759;-69
2022/11/27 02:56:05;;;;;;;30.27;16.87;;;8.00;99.90;;;;;;5058141;28;21001;-69
2022/11/27 02:58:35;;;;;;;28.17;14.87;;;8.00;99.90;;;;;;5071828;28;20408;-68
2022/11/27 03:01:03;;;;;;;32.83;16.50;;;8.00;99.90;;;;;;5067877;28;20402;-77
2022/11/27 03:03:36;;;;;;;31.57;14.80;;;7.90;99.90;;;;;;5053221;28;20492;-69
2022/11/27 03:06:08;;;;;;;26.77;15.10;;;7.90;99.90;;;;;;5055942;28;20474;-69
2022/11/27 03:08:56;;;;;;;28.07;14.90;;;7.90;99.90;;;;;;5053258;28;20702;-78
2022/11/27 03:11:23;;;;;;;28.30;16.13;;;7.80;99.90;;;;;;5053347;28;20856;-77
2022/11/27 03:13:54;;;;;;;26.53;13.43;;;7.80;99.90;;;;;;5052322;28;20968;-69
2022/11/27 03:16:39;;;;;;;25.23;12.77;;;7.80;99.90;;;;;;5061982;28;20434;-76
2022/11/27 03:19:35;;;;;;;24.70;15.23;;;7.70;99.90;;;;;;5073278;28;20804;-74
2022/11/27 03:22:02;;;;;;;34.23;13.80;;;7.70;99.90;;;;;;5052984;28;20428;-75
2022/11/27 03:24:29;;;;;;;23.30;13.13;;;7.60;99.90;;;;;;5051427;28;20766;-77
2022/11/27 03:26:59;;;;;;;21.23;12.60;;;7.50;99.90;;;;;;5068952;28;20953;-77
2022/11/27 03:29:38;;;;;;;31.17;13.80;;;7.50;99.90;;;;;;5070198;28;20505;-68
2022/11/27 03:32:04;;;;;;;26.13;14.17;;;7.40;99.90;;;;;;5072992;28;20393;-77
2022/11/27 03:34:31;;;;;;;25.47;13.80;;;7.40;99.90;;;;;;5062079;28;20479;-77
2022/11/27 03:36:57;;;;;;;23.70;13.37;;;7.40;99.90;;;;;;5052346;28;20426;-77
2022/11/27 03:39:23;;;;;;;21.73;12.90;;;7.30;99.90;;;;;;5060633;28;20939;-77
2022/11/27 03:42:19;;;;;;;23.90;13.53;;;7.30;99.90;;;;;;5072928;28;20257;-69
2022/11/27 03:45:14;;;;;;;25.07;12.70;;;7.20;99.90;;;;;;5061257;28;20799;-68
2022/11/27 03:47:58;;;;;;;24.93;12.57;;;7.20;99.90;;;;;;5052863;28;20448;-77
2022/11/27 03:50:29;;;;;;;34.57;13.63;;;7.10;99.90;;;;;;5067745;28;20539;-70
2022/11/27 03:53:06;;;;;;;19.43;11.30;;;7.00;99.90;;;;;;5072918;28;20396;-77
2022/11/27 03:55:48;;;;;;;28.27;13.30;;;6.90;99.90;;;;;;5054828;28;20417;-69
2022/11/27 03:58:21;;;;;;;21.47;12.50;;;6.90;99.90;;;;;;5052835;28;20482;-78
2022/11/27 04:00:49;;;;;;;23.77;12.33;;;6.90;99.90;;;;;;5069454;28;20425;-77
2022/11/27 04:03:26;;;;;;;23.73;13.37;;;6.80;99.90;;;;;;5072961;28;20450;-77
2022/11/27 04:05:52;;;;;;;22.30;12.40;;;6.80;99.90;;;;;;5055477;28;20459;-78
2022/11/27 04:08:18;;;;;;;29.30;13.80;;;6.80;99.90;;;;;;5055314;28;20429;-70
2022/11/27 04:10:45;;;;;;;17.83;11.13;;;6.70;99.90;;;;;;5069115;28;20431;-68
2022/11/27 04:13:10;;;;;;;22.70;11.60;;;6.70;99.90;;;;;;5070335;28;20503;-76
2022/11/27 04:15:36;;;;;;;27.90;11.97;;;6.70;99.90;;;;;;5071596;28;20432;-77
2022/11/27 04:18:02;;;;;;;34.90;12.07;;;6.70;99.90;;;;;;5068218;28;20171;-68
2022/11/27 04:20:28;;;;;;;21.30;12.13;;;6.70;99.90;;;;;;5051494;28;20392;-69
2022/11/27 04:22:54;;;;;;;25.10;11.27;;;6.60;99.90;;;;;;5053656;28;20182;-77
2022/11/27 04:25:20;;;;;;;19.30;10.47;;;6.60;99.90;;;;;;5062669;28;20787;-77
2022/11/27 04:27:46;;;;;;;22.03;10.70;;;6.50;99.90;;;;;;5051329;28;20425;-73
2022/11/27 04:30:12;;;;;;;32.13;11.13;;;6.50;99.90;;;;;;5051878;28;20191;-75
2022/11/27 04:32:38;;;;;;;22.40;11.17;;;6.40;99.90;;;;;;5070633;28;20416;-69
2022/11/27 04:35:04;;;;;;;17.00;10.20;;;6.40;99.90;;;;;;5073496;28;20899;-72
2022/11/27 04:37:30;;;;;;;28.73;11.57;;;6.40;99.90;;;;;;5057611;28;20809;-68
2022/11/27 04:39:56;;;;;;;19.80;11.40;;;6.40;99.90;;;;;;5056142;28;20406;-69
2022/11/27 04:42:22;;;;;;;20.43;10.40;;;6.40;99.90;;;;;;5072325;28;20420;-76
2022/11/27 04:44:47;;;;;;;19.73;10.10;;;6.30;99.90;;;;;;5075159;28;20257;-77
2022/11/27 04:47:13;;;;;;;22.47;9.77;;;6.30;99.90;;;;;;5061048;28;20199;-69
2022/11/27 04:49:39;;;;;;;21.13;10.80;;;6.30;99.90;;;;;;5055130;28;20203;-68
2022/11/27 04:52:05;;;;;;;18.97;9.57;;;6.30;99.90;;;;;;5068332;28;20170;-77
2022/11/27 04:54:30;;;;;;;22.77;10.10;;;6.20;99.90;;;;;;5075007;28;20165;-69
2022/11/27 04:56:56;;;;;;;20.73;9.10;;;6.20;99.90;;;;;;5064715;28;20524;-69
2022/11/27 04:59:22;;;;;;;20.27;12.70;;;6.10;99.90;;;;;;5055800;28;20181;-77
2022/11/27 05:01:48;;;;;;;17.60;9.57;;;6.10;99.90;;;;;;5064364;28;20197;-77
2022/11/27 05:04:13;;;;;;;26.47;10.37;;;6.10;99.90;;;;;;5074690;28;20504;-77
2022/11/27 05:06:39;;;;;;;18.40;9.90;;;6.10;99.90;;;;;;5067496;28;20618;-77
2022/11/27 05:09:05;;;;;;;24.70;9.80;;;6.00;99.90;;;;;;5054209;28;20651;-68
2022/11/27 05:11:31;;;;;;;14.87;9.87;;;6.10;99.90;;;;;;5060646;28;20162;-77
2022/11/27 05:16:52;;;;;;;20.27;11.37;;;6.00;99.90;;;;;;5069078;28;20528;-78
2022/11/27 05:19:20;;;;;;;17.33;9.30;;;6.00;99.90;;;;;;5055326;28;20412;-77
2022/11/27 05:21:47;;;;;;;19.90;10.60;;;6.00;99.90;;;;;;5061067;28;20478;-71
2022/11/27 05:24:14;;;;;;;21.77;11.60;;;5.90;99.90;;;;;;5074166;28;20424;-72
2022/11/27 05:26:41;;;;;;;16.40;9.37;;;5.90;99.90;;;;;;5070193;28;20794;-69
2022/11/27 05:29:07;;;;;;;26.47;11.03;;;5.90;99.90;;;;;;5055074;28;20837;-76
2022/11/27 05:31:34;;;;;;;21.63;12.30;;;5.90;99.90;;;;;;5057838;28;20779;-69
2022/11/27 05:34:00;;;;;;;17.93;10.43;;;5.80;99.90;;;;;;5073949;28;20423;-68
2022/11/27 05:36:26;;;;;;;27.97;10.30;;;5.80;99.90;;;;;;5073690;28;20412;-70
2022/11/27 05:38:51;;;;;;;15.10;10.27;;;5.80;99.90;;;;;;5055214;28;20413;-68
2022/11/27 05:41:17;;;;;;;14.83;9.87;;;5.80;99.90;;;;;;5054492;28;20770;-69
2022/11/27 05:43:43;;;;;;;20.37;10.73;;;5.80;99.90;;;;;;5072672;28;20542;-70
2022/11/27 05:46:12;;;;;;;26.53;10.73;;;5.80;99.90;;;;;;5073990;28;20439;-77
2022/11/27 05:48:38;;;;;;;22.37;11.00;;;5.80;99.90;;;;;;5056588;28;20766;-69
2022/11/27 05:51:04;;;;;;;27.07;11.47;;;5.70;99.90;;;;;;5053525;28;20489;-75
2022/11/27 05:53:30;;;;;;;27.67;11.20;;;5.70;99.90;;;;;;5070321;28;20174;-69
2022/11/27 05:56:14;;;;;;;20.70;10.80;;;5.70;99.90;;;;;;5072897;28;20464;-77
2022/11/27 05:58:42;;;;;;;17.83;10.20;;;5.70;99.90;;;;;;5060527;28;20416;-77
2022/11/27 06:01:09;;;;;;;22.33;11.67;;;5.70;99.90;;;;;;5054461;28;20430;-69
2022/11/27 06:03:35;;;;;;;16.87;10.63;;;5.60;99.90;;;;;;5053602;28;20980;-69
2022/11/27 06:06:10;;;;;;;19.03;12.10;;;5.60;99.90;;;;;;5053918;28;20444;-77
2022/11/27 06:08:36;;;;;;;17.80;9.93;;;5.60;99.90;;;;;;5069502;28;20531;-77
2022/11/27 06:11:11;;;;;;;29.33;11.37;;;5.50;99.90;;;;;;5074383;28;20479;-69
2022/11/27 06:13:37;;;;;;;20.67;10.40;;;5.50;99.90;;;;;;5058548;28;20971;-76
2022/11/27 06:16:05;;;;;;;20.27;11.87;;;5.50;99.90;;;;;;5054290;28;20775;-75
2022/11/27 06:18:31;;;;;;;21.93;11.60;;;5.50;99.90;;;;;;5067489;28;20416;-68
2022/11/27 06:20:57;;;;;;;22.90;12.57;;;5.50;99.90;;;;;;5074313;28;20457;-68
2022/11/27 06:23:22;;;;;;;23.33;12.03;;;5.40;99.90;;;;;;5061307;28;20179;-70
2022/11/27 06:25:48;;;;;;;22.67;11.23;;;5.40;99.90;;;;;;5053291;28;20190;-69
2022/11/27 06:28:14;;;;;;;17.80;11.77;;;5.40;99.90;;;;;;5063710;28;20265;-67
2022/11/27 06:30:39;;;;;;;21.60;11.57;;;5.30;99.90;;;;;;5073997;28;20256;-77
2022/11/27 06:33:05;;;;;;;24.53;11.67;;;5.40;99.90;;;;;;5065953;28;20643;-77
2022/11/27 06:35:31;;;;;;;18.67;11.67;;;5.40;99.90;;;;;;5053001;28;20166;-69
2022/11/27 06:37:56;;;;;;;37.00;13.87;;;5.30;99.90;;;;;;5059475;28;20170;-68
2022/11/27 06:40:22;;;;;;;21.13;11.13;;;5.40;99.90;;;;;;5073982;28;20161;-70
2022/11/27 06:42:48;;;;;;;27.07;13.40;;;5.40;99.90;;;;;;5067683;28;20185;-77
2022/11/27 06:45:15;;;;;;;21.77;12.47;;;5.40;99.90;;;;;;5052908;28;20300;-77
2022/11/27 06:47:41;;;;;;;21.57;12.97;;;5.30;99.90;;;;;;5055867;28;20216;-74
2022/11/27 06:50:07;;;;;;;34.27;14.03;;;5.30;99.90;;;;;;5073530;28;20510;-70
2022/11/27 06:52:32;;;;;;;20.40;12.03;;;5.40;99.90;;;;;;5072695;28;20169;-77
2022/11/27 06:54:58;;;;;;;20.63;11.67;;;5.40;99.90;;;;;;5052574;28;20400;-69
2022/11/27 06:57:24;;;;;;;20.03;10.53;;;5.40;99.90;;;;;;5053413;28;20198;-70
2022/11/27 06:59:49;;;;;;;22.07;12.27;;;5.30;99.90;;;;;;5071888;28;20174;-77
2022/11/27 07:02:15;;;;;;;22.70;11.90;;;5.30;99.90;;;;;;5072253;28;20177;-68
2022/11/27 07:04:41;;;;;;;20.57;10.90;;;5.30;99.90;;;;;;5055382;28;20238;-68
2022/11/27 07:07:07;;;;;;;20.13;12.20;;;5.30;99.90;;;;;;5053271;28;20210;-77
2022/11/27 07:09:32;;;;;;;17.67;11.30;;;5.20;99.90;;;;;;5068199;28;20660;-77
2022/11/27 07:11:58;;;;;;;22.53;13.10;;;5.20;99.90;;;;;;5073194;28;20204;-70
2022/11/27 07:14:24;;;;;;;18.00;11.47;;;5.10;99.90;;;;;;5059143;28;20184;-72
2022/11/27 07:16:49;;;;;;;23.70;12.37;;;5.10;99.90;;;;;;5052227;28;20199;-77
2022/11/27 07:19:15;;;;;;;17.00;11.17;;;5.10;99.90;;;;;;5063370;28;20180;-68
2022/11/27 07:21:41;;;;;;;22.50;13.43;;;5.20;99.90;;;;;;5073338;28;20511;-69
2022/11/27 07:24:07;;;;;;;21.00;11.50;;;5.30;99.90;;;;;;5062549;28;20182;-77
2022/11/27 07:26:32;;;;;;;23.20;12.30;;;5.30;99.90;;;;;;5053039;28;20193;-69
2022/11/27 07:28:58;;;;;;;16.70;10.60;;;5.30;99.90;;;;;;5060392;28;20458;-77
2022/11/27 07:31:27;;;;;;;24.40;12.20;;;5.30;99.90;;;;;;5073088;28;20228;-77
2022/11/27 07:33:53;;;;;;;16.53;11.43;;;5.30;99.90;;;;;;5065772;28;20167;-68
2022/11/27 07:36:21;;;;;;;18.20;11.60;;;5.30;99.90;;;;;;5051895;28;20441;-76
2022/11/27 07:38:48;;;;;;;20.70;10.80;;;5.40;99.90;;;;;;5057365;28;20427;-68
2022/11/27 07:41:14;;;;;;;21.30;11.07;;;5.30;99.90;;;;;;5069883;28;20422;-69
2022/11/27 07:43:41;;;;;;;19.93;10.87;;;5.30;99.90;;;;;;5052183;28;20408;-77
2022/11/27 07:46:14;;;;;;;17.03;12.10;;;5.30;99.90;;;;;;5053802;28;20507;-77
2022/11/27 07:48:40;;;;;;;24.50;12.00;;;5.30;99.90;;;;;;5072847;28;20796;-69
2022/11/27 07:51:11;;;;;;;22.13;13.07;;;5.30;99.90;;;;;;5072425;28;20397;-74
2022/11/27 07:53:38;;;;;;;28.63;14.30;;;5.30;99.90;;;;;;5052376;28;20178;-75
2022/11/27 07:56:13;;;;;;;22.13;13.03;;;5.40;99.90;;;;;;5058354;28;20929;-70
2022/11/27 07:58:39;;;;;;;18.13;10.40;;;5.40;99.90;;;;;;5072751;28;20913;-78
2022/11/27 08:01:07;;;;;;;20.73;11.90;;;5.40;99.90;;;;;;5066362;28;20488;-70
2022/11/27 08:03:33;;;;;;;25.00;13.20;;;5.40;99.90;;;;;;5052715;28;20416;-78
2022/11/27 08:05:59;;;;;;;18.90;13.67;;;5.40;99.90;;;;;;5056303;28;20440;-77
2022/11/27 08:08:24;;;;;;;20.07;11.30;;;5.40;99.90;;;;;;5072633;28;20871;-76
2022/11/27 08:10:50;;;;;;;22.57;13.90;;;5.30;99.90;;;;;;5061265;28;20194;-69
2022/11/27 08:13:16;;;;;;;22.80;12.17;;;5.20;99.90;;;;;;5059173;28;20634;-77
2022/11/27 08:15:42;;;;;;;16.47;11.03;;;5.20;99.90;;;;;;5073880;28;20304;-77
2022/11/27 08:18:07;;;;;;;20.43;12.40;;;5.30;99.90;;;;;;5062626;28;20223;-69
2022/11/27 08:20:33;;;;;;;25.10;13.27;;;5.30;99.90;;;;;;5057489;28;20573;-77
2022/11/27 08:22:59;;;;;;;25.47;12.07;;;5.30;99.90;;;;;;5056608;28;20236;-68
2022/11/27 08:25:25;;;;;;;26.73;12.70;;;5.30;99.90;;;;;;5055539;28;20172;-77
2022/11/27 08:27:51;;;;;;;20.07;12.70;;;5.30;99.90;;;;;;5055289;28;20193;-69
2022/11/27 08:30:16;;;;;;;19.97;12.57;;;5.30;99.90;;;;;;5056416;28;20958;-71
2022/11/27 08:32:42;;;;;;;18.03;11.43;;;5.20;99.90;;;;;;5055496;28;20187;-68
2022/11/27 08:35:09;;;;;;;18.50;11.40;;;5.20;99.90;;;;;;5055548;28;20674;-77
2022/11/27 08:37:36;;;;;;;22.73;12.57;;;5.20;99.90;;;;;;5056280;28;20415;-68
2022/11/27 08:40:02;;;;;;;18.57;10.80;;;5.20;99.90;;;;;;5056130;28;20497;-69
2022/11/27 08:42:28;;;;;;;25.17;12.67;;;5.20;99.90;;;;;;5056027;28;20397;-77
2022/11/27 08:44:54;;;;;;;23.00;13.97;;;5.20;99.90;;;;;;5055453;28;20406;-68
2022/11/27 08:47:19;;;;;;;25.80;12.13;;;5.20;99.90;;;;;;5055963;28;20448;-78
2022/11/27 08:49:45;;;;;;;22.67;13.67;;;5.30;99.90;;;;;;5055980;28;20201;-69
2022/11/27 08:52:11;;;;;;;20.30;13.33;;;5.30;99.90;;;;;;5054962;28;20246;-69
2022/11/27 08:54:36;;;;;;;19.90;13.30;;;5.30;99.90;;;;;;5055229;28;20178;-76
2022/11/27 08:57:02;;;;;;;22.60;14.13;;;5.30;99.90;;;;;;5055770;28;20186;-77
2022/11/27 08:59:28;;;;;;;23.83;14.07;;;5.30;99.90;;;;;;5055851;28;20646;-68
2022/11/27 09:01:54;;;;;;;28.47;14.33;;;5.30;99.90;;;;;;5054371;28;20466;-77
2022/11/27 09:04:19;;;;;;;26.27;13.77;;;5.20;99.90;;;;;;5053846;28;20378;-78
2022/11/27 09:06:47;;;;;;;22.30;13.00;;;5.20;99.90;;;;;;5054455;28;20210;-69
2022/11/27 09:09:13;;;;;;;25.93;14.30;;;5.20;99.90;;;;;;5055480;28;20224;-68
2022/11/27 09:11:40;;;;;;;23.30;13.50;;;5.20;99.90;;;;;;5053554;28;20416;-77
2022/11/27 09:14:07;;;;;;;15.77;11.23;;;5.20;99.90;;;;;;5054916;28;20409;-68
2022/11/27 09:16:34;;;;;;;26.00;13.20;;;5.30;99.90;;;;;;5055436;28;20416;-77
2022/11/27 09:18:59;;;;;;;21.87;13.00;;;5.30;99.90;;;;;;5055447;28;20771;-69
2022/11/27 09:21:29;;;;;;;21.67;14.03;;;5.30;99.90;;;;;;5052786;28;20420;-69
2022/11/27 09:23:59;;;;;;;24.87;13.50;;;5.30;99.90;;;;;;5054750;28;20231;-77
2022/11/27 09:26:26;;;;;;;21.63;13.63;;;5.40;99.90;;;;;;5054731;28;20512;-70
2022/11/27 09:28:53;;;;;;;22.30;11.90;;;5.40;99.90;;;;;;5054569;28;20436;-73
2022/11/27 09:31:20;;;;;;;23.77;12.50;;;5.40;99.90;;;;;;5055143;28;20503;-77
2022/11/27 09:33:47;;;;;;;28.03;13.00;;;5.40;99.90;;;;;;5053266;28;20417;-70
2022/11/27 09:36:16;;;;;;;22.23;14.50;;;5.40;99.90;;;;;;5053853;28;20457;-68
2022/11/27 09:38:42;;;;;;;28.60;13.90;;;5.40;99.90;;;;;;5055015;28;20403;-77
2022/11/27 09:41:11;;;;;;;22.67;13.07;;;5.40;99.90;;;;;;5053561;28;20552;-77
2022/11/27 09:44:00;;;;;;;21.07;12.47;;;5.40;99.90;;;;;;5053101;28;20416;-74
2022/11/27 09:46:35;;;;;;;22.27;12.83;;;5.40;99.90;;;;;;5053914;28;20428;-76
2022/11/27 09:49:05;;;;;;;22.50;13.27;;;5.50;99.90;;;;;;5054803;28;20455;-70
2022/11/27 09:51:33;;;;;;;18.10;12.07;;;5.60;99.90;;;;;;5054945;28;20477;-77
2022/11/27 09:54:14;;;;;;;20.90;11.37;;;5.60;99.90;;;;;;5054091;28;20422;-77
2022/11/27 09:56:44;;;;;;;21.37;11.47;;;5.60;99.90;;;;;;5053588;28;20432;-68
2022/11/27 09:59:19;;;;;;;24.40;13.97;;;5.70;99.90;;;;;;5054615;28;20420;-76
2022/11/27 10:01:45;;;;;;;18.20;11.97;;;5.70;99.90;;;;;;5054573;28;20405;-69
2022/11/27 10:04:17;;;;;;;24.90;12.13;;;5.70;99.90;;;;;;5054160;28;20412;-77
2022/11/27 10:07:26;;;;;;;20.63;12.50;;;5.70;99.90;;;;;;5053432;28;20961;-68
2022/11/27 10:10:16;;;;;;;18.20;12.63;;;5.80;99.90;;;;;;5049419;28;20463;-77
2022/11/27 10:12:48;;;;;;;19.80;12.07;;;5.80;99.90;;;;;;5054421;28;20416;-77
2022/11/27 10:15:16;;;;;;;20.70;12.63;;;5.80;99.90;;;;;;5053689;28;20894;-69
2022/11/27 10:17:54;;;;;;;22.60;12.07;;;5.80;99.90;;;;;;5052992;28;20795;-69
2022/11/27 10:20:49;;;;;;;19.10;11.63;;;5.80;99.90;;;;;;5054417;28;20504;-77
2022/11/27 10:23:44;;;;;;;21.60;12.47;;;5.90;99.90;;;;;;5054242;28;20412;-76
2022/11/27 10:26:24;;;;;;;21.20;10.23;;;5.80;99.90;;;;;;5053392;28;20941;-76
2022/11/27 10:35:01;;;;;;;21.33;11.43;;;6.20;99.90;;;;;;5110376;27;20530;-78
2022/11/27 10:37:29;;;;;;;19.47;12.17;;;6.30;99.90;;;;;;5110782;28;20433;-68
2022/11/27 10:40:11;;;;;;;18.40;13.30;;;6.50;99.90;;;;;;5110776;28;20786;-66
2022/11/27 10:50:40;;;;;;;24.93;12.07;;;6.50;92.10;;;;;;5110770;27;20537;-69
2022/11/27 10:53:10;;;;;;;23.93;13.33;;;6.50;90.60;;;;;;5110869;28;20405;-71
2022/11/27 10:55:48;;;;;;;16.00;11.17;;;6.50;78.90;;;;;;5108852;28;20923;-78
2022/11/27 10:58:24;;;;;;;15.70;10.77;;;6.70;78.80;;;;;;5110017;28;20415;-71
2022/11/27 11:01:01;;;;;;;17.60;10.47;;;6.60;67.50;;;;;;5109509;28;20412;-76
2022/11/27 11:03:27;;;;;;;18.20;10.77;;;6.60;50.30;;;;;;5108736;28;20403;-77
2022/11/27 11:05:58;;;;;;;17.07;10.33;;;6.60;29.40;;;;;;5109932;28;20825;-76
2022/11/27 11:08:25;;;;;;;16.87;12.67;;;6.60;13.10;;;;;;5110486;28;20168;-76
2022/11/27 11:10:58;;;;;;;19.67;12.10;;;6.60;9.60;;;;;;5110476;28;20489;-75
2022/11/27 11:13:28;;;;;;;17.10;10.33;;;6.60;1.00;;;;;;5109126;28;20741;-76
2022/11/27 11:16:19;;;;;;;17.13;10.57;;;6.50;1.00;;;;;;5108668;28;20518;-70
2022/11/27 11:18:55;;;;;;;14.80;10.00;;;6.40;1.00;;;;;;5108229;28;20415;-69
2022/11/27 11:21:26;;;;;;;16.37;10.03;;;6.50;1.00;;;;;;5109477;28;20409;-76
2022/11/27 11:24:20;;;;;;;16.17;11.10;;;6.50;1.00;;;;;;5109588;28;20403;-74
2022/11/27 11:27:17;;;;;;;15.80;12.13;;;6.50;1.00;;;;;;5097648;28;20431;-74
2022/11/27 11:29:45;;;;;;;22.70;10.40;;;6.50;1.00;;;;;;5109259;28;20494;-72
2022/11/27 11:32:19;;;;;;;19.70;10.37;;;6.50;1.00;;;;;;5110189;28;20399;-76
2022/11/27 11:34:52;;;;;;;14.57;9.37;;;6.50;1.00;;;;;;5109516;28;20892;-75
2022/11/27 11:37:32;;;;;;;20.87;10.67;;;6.60;1.00;;;;;;5109782;28;20456;-75
2022/11/27 11:40:23;;;;;;;18.27;9.47;;;6.60;1.00;;;;;;5109508;28;20411;-76
2022/11/27 11:42:57;;;;;;;13.67;8.97;;;6.60;1.00;;;;;;5098724;28;20903;-73
2022/11/27 11:45:25;;;;;;;14.10;9.33;;;6.60;1.00;;;;;;5108971;28;20962;-68
2022/11/27 11:47:51;;;;;;;14.50;8.60;;;6.60;1.00;;;;;;5109589;28;20483;-73
2022/11/27 11:50:26;;;;;;;15.60;10.27;;;6.50;1.00;;;;;;5109913;28;20935;-72
2022/11/27 11:53:29;;;;;;;12.43;9.10;;;6.50;1.00;;;;;;5109963;28;20923;-73
2022/11/27 11:56:08;;;;;;;14.53;9.30;;;6.40;1.00;;;;;;5108858;28;20421;-74
2022/11/27 11:58:45;;;;;;;15.80;8.60;;;6.40;1.00;;;;;;5109171;28;20902;-69
2022/11/27 12:01:40;;;;;;;13.93;9.07;;;6.40;1.00;;;;;;5099217;28;20415;-73
2022/11/27 12:04:43;;;;;;;17.50;9.10;;;6.40;1.00;;;;;;5023214;28;20959;-69
2022/11/27 12:07:20;;;;;;;19.00;11.00;;;6.40;1.00;;;;;;5096076;28;20757;-69
2022/11/27 12:09:46;;;;;;;15.13;10.07;;;6.40;1.00;;;;;;5095829;28;20450;-72
2022/11/27 12:12:32;;;;;;;12.93;8.40;;;6.50;1.00;;;;;;5095831;28;20919;-74
2022/11/27 12:15:15;;;;;;;13.60;10.10;;;6.40;1.00;;;;;;5095077;28;20169;-70
2022/11/27 12:17:41;;;;;;;17.73;9.57;;;6.50;1.00;;;;;;5094842;28;20427;-72
2022/11/27 12:20:16;;;;;;;16.63;9.53;;;6.40;1.00;;;;;;5095649;28;20768;-69
2022/11/27 12:23:15;;;;;;;16.03;9.30;;;6.40;1.00;;;;;;5095666;28;20161;-69
2022/11/27 12:25:47;;;;;;;13.33;8.93;;;6.40;1.00;;;;;;5094732;28;20396;-71
2022/11/27 12:28:37;;;;;;;13.30;9.30;;;6.40;1.00;;;;;;5095586;28;20488;-69
2022/11/27 12:31:15;;;;;;;14.50;8.73;;;6.40;1.00;;;;;;5095559;28;20910;-74
2022/11/27 12:33:52;;;;;;;14.60;9.83;;;6.40;1.00;;;;;;5094589;28;20415;-73
2022/11/27 12:36:18;;;;;;;15.37;10.13;;;6.40;1.00;;;;;;5094682;28;20412;-72
2022/11/27 12:38:51;;;;;;;11.77;8.73;;;6.40;1.00;;;;;;5095299;28;20472;-69
2022/11/27 12:41:41;;;;;;;17.60;10.00;;;6.40;1.00;;;;;;5095327;28;20215;-71
2022/11/27 12:44:35;;;;;;;18.67;9.30;;;6.30;1.00;;;;;;5094366;28;20415;-71
2022/11/27 12:47:14;;;;;;;13.23;9.43;;;6.30;1.00;;;;;;5092748;28;20431;-69
2022/11/27 12:49:56;;;;;;;13.63;10.00;;;6.30;1.00;;;;;;5095059;28;20534;-69
2022/11/27 12:52:30;;;;;;;12.70;8.80;;;6.30;1.00;;;;;;5095120;28;20427;-71
2022/11/27 12:55:19;;;;;;;13.20;9.67;;;6.30;1.00;;;;;;5093584;28;20401;-71
2022/11/27 12:57:50;;;;;;;12.67;8.80;;;6.40;1.00;;;;;;5094690;28;20455;-72
2022/11/27 13:00:22;;;;;;;14.77;9.13;;;6.30;1.00;;;;;;5095102;28;20404;-69
2022/11/27 13:03:17;;;;;;;22.27;8.80;;;6.40;1.00;;;;;;5094817;28;20758;-73
2022/11/27 13:05:55;;;;;;;12.03;8.17;;;6.40;1.00;;;;;;5094109;28;20403;-71
2022/11/27 13:08:41;;;;;;;9.40;7.23;;;6.40;1.00;;;;;;5094829;28;20453;-72
2022/11/27 13:11:14;;;;;;;13.50;8.77;;;6.40;1.00;;;;;;5075912;28;20912;-72
2022/11/27 13:13:47;;;;;;;12.50;8.30;;;6.30;1.00;;;;;;5091801;28;20400;-73
2022/11/27 13:16:45;;;;;;;13.53;8.63;;;6.30;1.00;;;;;;5093248;28;20435;-72